Flight Track Log - Related Links

Times and Time Zones

All times are in EDT time to prevent confusion due to time zone crossing. See the AAY824 flight status page for this flight to view local times or setup timezone preferences in your user account.

Time Position Orientation Groundspeed Altitude Reporting Facility
EDT Latitude Longitude Course Direction KTS MPH feet Rate Location/Type
Thu 07:42:18 AM 27.9333 -82.6833 360° North 157 181 600  Level Tampa TRACON
Thu 07:43:00 AM 27.9667 -82.6833 360° North 172 198 1,600 1,313 Climbing Tampa TRACON
Thu 07:43:54 AM 28.0167 -82.6667 16° North 254 292 2,700 2,040 Climbing Tampa TRACON
Thu 07:46:20 AM 28.1894 -82.6336 10° North 285 328 8,400 2,272 Climbing Jacksonville Center
Thu 07:47:20 AM 28.2708 -82.6497 350° North 285 328 10,500 1,600 Climbing Jacksonville Center
Thu 07:48:20 AM 28.3625 -82.6708 349° North 306 352 11,600 1,200 Climbing Jacksonville Center
Thu 07:49:20 AM 28.4608 -82.7156 338° Northwest 337 388 12,900 1,700 Climbing Jacksonville Center
Thu 07:50:20 AM 28.5528 -82.7886 325° Northwest 375 432 15,000 2,550 Climbing Jacksonville Center
Thu 07:51:20 AM 28.6425 -82.8619 324° Northwest 396 456 18,000 2,650 Climbing Jacksonville Center
Thu 07:52:20 AM 28.7342 -82.9306 327° Northwest 386 444 20,300 1,800 Climbing Jacksonville Center
Thu 07:53:20 AM 28.8197 -82.9992 325° Northwest 379 436 21,600 1,200 Climbing Jacksonville Center
Thu 07:54:20 AM 28.9094 -83.0706 325° Northwest 379 436 22,700 1,300 Climbing Jacksonville Center
Thu 07:55:20 AM 29.0011 -83.1394 327° Northwest 389 448 24,200 1,300 Climbing Jacksonville Center
Thu 07:56:20 AM 29.0969 -83.2086 328° Northwest 394 453 25,300 1,200 Climbing Jacksonville Center
Thu 07:57:20 AM 29.1928 -83.2756 329° Northwest 399 459 26,600 1,100 Climbing Jacksonville Center
Thu 07:58:20 AM 29.2908 -83.3450 328° Northwest 405 466 27,500 950 Climbing Jacksonville Center
Thu 07:59:20 AM 29.3700 -83.4003 329° Northwest 411 473 28,500 850 Climbing Jacksonville Center
Thu 08:00:20 AM 29.4761 -83.4769 328° Northwest 411 473 29,200 750 Climbing Jacksonville Center
Thu 08:01:20 AM 29.5800 -83.5469 330° Northwest 418 481 30,000 400 Climbing Jacksonville Center
Thu 08:02:20 AM 29.6819 -83.6217 328° Northwest 411 473 30,000 -50 Level Jacksonville Center
Thu 08:03:20 AM 29.7817 -83.6919 329° Northwest 411 473 29,900 -50 Descending Jacksonville Center
Thu 08:04:20 AM 29.8836 -83.7622 329° Northwest 411 473 29,900 50 Level Jacksonville Center
Thu 08:05:20 AM 29.9769 -83.8300 328° Northwest 411 473 30,000 50 Climbing Jacksonville Center
Thu 08:06:20 AM 30.0747 -83.9031 327° Northwest 411 473 30,000  Level Jacksonville Center
Thu 08:07:20 AM 30.1742 -83.9739 328° Northwest 416 479 30,000  Level Jacksonville Center
Thu 08:08:20 AM 30.2758 -84.0472 328° Northwest 416 479 30,000  Level Jacksonville Center
Thu 08:09:20 AM 30.3775 -84.1206 328° Northwest 426 490 30,000 -50 Level Jacksonville Center
Thu 08:10:20 AM 30.4769 -84.1917 328° Northwest 420 483 29,900  Descending Jacksonville Center
Thu 08:11:20 AM 30.5764 -84.2656 327° Northwest 420 483 30,000 50 Climbing Jacksonville Center
Thu 08:12:20 AM 30.6781 -84.3394 328° Northwest 420 483 30,000  Level Jacksonville Center
Thu 08:13:20 AM 30.7567 -84.3961 328° Northwest 425 489 30,000  Level Jacksonville Center
Thu 08:14:20 AM 30.8664 -84.4753 328° Northwest 425 489 30,000  Level Jacksonville Center
Thu 08:15:20 AM 30.9656 -84.5472 328° Northwest 425 489 30,000  Level Jacksonville Center
Thu 08:16:20 AM 31.0669 -84.6242 327° Northwest 425 489 30,000  Level Jacksonville Center
Thu 08:17:20 AM 31.1661 -84.6942 329° Northwest 425 489 30,000  Level Jacksonville Center
Thu 08:18:20 AM 31.2653 -84.7689 327° Northwest 425 489 30,000  Level Jacksonville Center
Thu 08:20:34 AM 31.4889 -84.9350 328° Northwest 429 494 30,000  Level Atlanta Center
Thu 08:21:34 AM 31.5883 -85.0117 327° Northwest 437 503 30,000  Level Atlanta Center
Thu 08:22:34 AM 31.6900 -85.0883 327° Northwest 437 503 30,000  Level Atlanta Center
Thu 08:23:34 AM 31.7936 -85.1628 329° Northwest 437 503 30,000  Level Atlanta Center
Thu 08:24:34 AM 31.8972 -85.2400 328° Northwest 437 503 30,000  Level Atlanta Center
Thu 08:25:34 AM 31.9989 -85.3172 327° Northwest 437 503 30,000  Level Atlanta Center
Thu 08:26:34 AM 32.1022 -85.3947 328° Northwest 437 503 30,000  Level Atlanta Center
Thu 08:27:34 AM 32.2039 -85.4722 327° Northwest 437 503 30,000  Level Atlanta Center
Thu 08:28:34 AM 32.3094 -85.5478 329° Northwest 437 503 30,000  Level Atlanta Center
Thu 08:29:34 AM 32.4231 -85.6358 327° Northwest 437 503 30,000  Level Atlanta Center
Thu 08:30:34 AM 32.5242 -85.7139 327° Northwest 442 509 30,000  Level Atlanta Center
Thu 08:31:34 AM 32.6317 -85.7950 328° Northwest 442 509 30,000  Level Atlanta Center
Thu 08:32:34 AM 32.7328 -85.8711 328° Northwest 442 509 30,000  Level Atlanta Center
Thu 08:33:34 AM 32.8358 -85.9547 326° Northwest 442 509 30,000  Level Atlanta Center
Thu 08:34:34 AM 32.9392 -86.0314 328° Northwest 438 504 30,000  Level Atlanta Center
Thu 08:35:34 AM 33.0461 -86.1181 326° Northwest 443 510 30,000  Level Atlanta Center
Thu 08:36:34 AM 33.1472 -86.1922 328° Northwest 437 503 30,000  Level Atlanta Center
Thu 08:37:34 AM 33.2481 -86.2769 325° Northwest 437 503 30,000  Level Atlanta Center
Thu 08:38:34 AM 33.3550 -86.3542 329° Northwest 437 503 30,000  Level Atlanta Center
Thu 08:39:34 AM 33.4353 -86.4211 325° Northwest 437 503 30,000  Level Atlanta Center
Thu 08:40:34 AM 33.5483 -86.5114 326° Northwest 437 503 30,000  Level Atlanta Center
Thu 08:41:34 AM 33.6511 -86.5892 328° Northwest 437 503 30,000  Level Atlanta Center
Thu 08:42:34 AM 33.7536 -86.6722 326° Northwest 437 503 30,000  Level Atlanta Center
Thu 08:43:34 AM 33.8561 -86.7528 327° Northwest 437 503 30,000  Level Atlanta Center
Thu 08:44:34 AM 33.9586 -86.8339 327° Northwest 437 503 30,000  Level Atlanta Center
Thu 08:45:55 AM 34.0997 -86.9481 326° Northwest 444 511 30,000  Level Memphis Center
Thu 08:46:57 AM 34.2022 -87.0300 327° Northwest 444 511 30,000  Level Memphis Center
Thu 08:47:58 AM 34.3047 -87.1117 327° Northwest 444 511 30,000  Level Memphis Center
Thu 08:49:00 AM 34.4283 -87.2114 326° Northwest 444 511 30,000  Level Memphis Center
Thu 08:50:02 AM 34.5317 -87.2947 326° Northwest 444 511 30,000  Level Memphis Center
Thu 08:51:04 AM 34.6300 -87.3761 326° Northwest 444 511 30,000  Level Memphis Center
Thu 08:52:06 AM 34.7328 -87.4592 326° Northwest 445 512 30,000  Level Memphis Center
Thu 08:53:08 AM 34.8361 -87.5425 327° Northwest 447 514 30,000  Level Memphis Center
Thu 08:54:10 AM 34.9608 -87.6431 327° Northwest 447 514 30,000  Level Memphis Center
Thu 08:55:12 AM 35.0631 -87.7267 326° Northwest 447 514 30,000  Level Memphis Center
Thu 08:56:14 AM 35.1669 -87.8125 326° Northwest 447 514 30,000  Level Memphis Center
Thu 08:57:16 AM 35.2700 -87.8983 326° Northwest 448 516 30,000  Level Memphis Center
Thu 08:58:18 AM 35.3736 -87.9833 326° Northwest 448 516 30,000  Level Memphis Center
Thu 08:59:19 AM 35.4950 -88.0847 326° Northwest 448 516 30,000  Level Memphis Center
Thu 09:00:21 AM 35.5933 -88.1669 326° Northwest 448 516 30,000  Level Memphis Center
Thu 09:01:23 AM 35.6964 -88.2533 326° Northwest 448 516 30,000  Level Memphis Center
Thu 09:02:25 AM 35.7994 -88.3400 326° Northwest 448 516 30,000  Level Memphis Center
Thu 09:03:27 AM 35.9011 -88.4256 326° Northwest 447 514 30,000  Level Memphis Center
Thu 09:04:29 AM 36.0239 -88.5297 326° Northwest 447 514 30,000  Level Memphis Center
Thu 09:05:31 AM 36.1261 -88.6164 326° Northwest 447 514 30,000  Level Memphis Center
Thu 09:06:33 AM 36.2278 -88.7022 326° Northwest 447 514 30,000  Level Memphis Center
Thu 09:07:35 AM 36.3289 -88.7894 325° Northwest 446 513 30,000  Level Memphis Center
Thu 09:08:37 AM 36.4297 -88.8756 326° Northwest 446 513 30,000  Level Memphis Center
Thu 09:09:39 AM 36.5511 -88.9789 326° Northwest 446 513 30,000  Level Memphis Center
Thu 09:10:41 AM 36.6514 -89.0658 325° Northwest 446 513 30,000  Level Memphis Center
Thu 09:11:43 AM 36.7528 -89.1539 325° Northwest 446 513 30,000  Level Memphis Center
Thu 09:12:45 AM 36.8547 -89.2417 325° Northwest 446 513 30,000  Level Memphis Center
Thu 09:13:47 AM 36.9567 -89.3306 325° Northwest 447 514 30,000  Level Memphis Center
Thu 09:14:49 AM 37.0800 -89.4381 325° Northwest 448 516 30,000  Level Memphis Center
Thu 09:15:51 AM 37.1828 -89.5286 325° Northwest 450 518 30,000  Level Memphis Center
Thu 09:16:53 AM 37.2853 -89.6167 326° Northwest 449 517 30,000  Level Memphis Center
Thu 09:17:53 AM 37.3875 -89.7083 325° Northwest 447 514 30,000  Level Kansas City Center
Thu 09:18:54 AM 37.4889 -89.7983 325° Northwest 447 514 30,000  Level Kansas City Center
Thu 09:19:56 AM 37.5894 -89.8889 324° Northwest 447 514 30,000  Level Kansas City Center
Thu 09:20:58 AM 37.6936 -89.9803 325° Northwest 449 517 30,000  Level Kansas City Center
Thu 09:21:59 AM 37.7947 -90.0708 325° Northwest 449 517 30,000  Level Kansas City Center
Thu 09:23:01 AM 37.8953 -90.1608 325° Northwest 448 516 30,000  Level Kansas City Center
Thu 09:24:02 AM 38.0156 -90.2692 325° Northwest 443 510 30,000  Level Kansas City Center
Thu 09:25:04 AM 38.1167 -90.3600 325° Northwest 444 511 30,000  Level Kansas City Center
Thu 09:26:06 AM 38.2167 -90.4503 325° Northwest 443 510 30,000  Level Kansas City Center
Thu 09:27:07 AM 38.3172 -90.5431 324° Northwest 443 510 30,000  Level Kansas City Center
Thu 09:28:09 AM 38.4175 -90.6342 325° Northwest 443 510 30,000  Level Kansas City Center
Thu 09:29:11 AM 38.5192 -90.7275 324° Northwest 443 510 30,000  Level Kansas City Center
Thu 09:30:12 AM 38.6211 -90.8219 324° Northwest 446 513 30,000  Level Kansas City Center
Thu 09:31:14 AM 38.7222 -90.9156 324° Northwest 446 513 30,000  Level Kansas City Center
Thu 09:32:16 AM 38.8233 -91.0089 324° Northwest 446 513 30,000  Level Kansas City Center
Thu 09:33:17 AM 38.9247 -91.1033 324° Northwest 446 513 30,000  Level Kansas City Center
Thu 09:34:19 AM 39.0447 -91.2156 324° Northwest 446 513 30,000  Level Kansas City Center
Thu 09:35:21 AM 39.1447 -91.3094 324° Northwest 446 513 30,000  Level Kansas City Center
Thu 09:36:23 AM 39.2442 -91.4036 324° Northwest 446 513 30,000  Level Kansas City Center
Thu 09:37:24 AM 39.3444 -91.4967 324° Northwest 444 511 30,000  Level Kansas City Center
Thu 09:38:26 AM 39.4431 -91.5903 324° Northwest 443 510 30,000  Level Kansas City Center
Thu 09:39:28 AM 39.5411 -91.6861 323° Northwest 443 510 30,000  Level Kansas City Center
Thu 09:40:30 AM 39.6400 -91.7792 324° Northwest 443 510 30,000  Level Kansas City Center
Thu 09:41:31 AM 39.7575 -91.8933 323° Northwest 443 510 30,000  Level Kansas City Center
Thu 09:42:33 AM 39.8569 -91.9889 324° Northwest 443 510 30,000  Level Kansas City Center
Thu 09:43:35 AM 39.9556 -92.0842 323° Northwest 443 510 30,000  Level Kansas City Center
Thu 09:44:37 AM 40.0539 -92.1789 324° Northwest 443 510 30,000  Level Kansas City Center
Thu 09:45:39 AM 40.1517 -92.2747 323° Northwest 443 510 30,000 -390 Level Kansas City Center
Thu 09:46:40 AM 40.2697 -92.3897 323° Northwest 445 512 29,200 -878 Descending Kansas City Center
Thu 09:47:42 AM 40.3639 -92.4819 323° Northwest 445 512 28,200 -968 Descending Kansas City Center
Thu 09:48:44 AM 40.4636 -92.5808 323° Northwest 446 513 27,200 -968 Descending Kansas City Center
Thu 09:49:46 AM 40.5617 -92.6764 323° Northwest 443 510 26,200 -1,016 Descending Kansas City Center
Thu 09:50:48 AM 40.6681 -92.7828 323° Northwest 428 493 25,100 -1,125 Descending Kansas City Center
Thu 09:51:22 AM 40.7217 -92.8372 322° Northwest 420 483 24,400 -1,063 Descending Chicago Center
Thu 09:52:24 AM 40.8111 -92.9267 323° Northwest 412 474 23,400 -968 Descending Chicago Center
Thu 09:53:26 AM 40.9014 -93.0169 323° Northwest 411 473 22,400 -912 Descending Chicago Center
Thu 09:54:29 AM 40.9894 -93.1039 323° Northwest 404 465 21,500 -960 Descending Chicago Center
Thu 09:55:31 AM 41.0728 -93.1908 322° Northwest 390 449 20,400 -2,516 Descending Chicago Center
Thu 09:56:33 AM 41.1722 -93.2903 323° Northwest 377 434 16,300 -3,340 Descending Chicago Center
Thu 09:57:08 AM 41.2142 -93.3064 344° North 377 434 15,000 -2,845 Descending Minneapolis Center
Thu 09:58:10 AM 41.3433 -93.2853 North 386 444 11,700 -2,679 Descending Minneapolis Center
Thu 09:59:00 AM 41.4328 -93.2675 North 333 383 10,000 -1,967 Descending Minneapolis Center
Thu 09:59:11 AM 41.4406 -93.2736 330° Northwest 347 399 9,700 -1,377 Descending Minneapolis Center
Thu 10:00:01 AM 41.5100 -93.2708 North 254 292 8,600 -1,355 Descending Minneapolis Center
Thu 10:00:13 AM 41.5108 -93.2892 273° West 270 311 8,300 -2,361 Descending Minneapolis Center
Thu 10:01:02 AM 41.5028 -93.3458 259° West 224 258 6,200 -2,754 Descending Minneapolis Center
Thu 10:01:14 AM 41.4839 -93.3672 220° Southwest 240 276 5,500 -1,800 Descending Minneapolis Center
Thu 10:02:02 AM 41.4494 -93.4028 218° Southwest 238 274 4,400 -1,355 Descending Minneapolis Center
Thu 10:02:16 AM 41.4333 -93.4242 225° Southwest 237 273 4,100 -1,377 Descending Minneapolis Center
Thu 10:03:03 AM 41.4294 -93.4642 263° West 183 211 3,000 -1,475 Descending Minneapolis Center
Thu 10:03:17 AM 41.4253 -93.4872 256° West 190 219 2,600 -448 Descending Minneapolis Center
Thu 10:04:10 AM 41.4533 -93.5244 315° West 150 173 2,500 -53 Descending Minneapolis Center
Thu 10:05:10 AM 41.4831 -93.5653 314° West 151 174 2,500 -86 Level Minneapolis Center
Thu 10:05:20 AM 41.4808 -93.5800 259° West 157 181 2,400 -689 Descending Minneapolis Center
Thu 10:06:11 AM 41.5108 -93.6036 329° Northwest 144 166 1,800 -677 Descending Minneapolis Center
Thu 10:06:22 AM 41.5075 -93.6189 254° West 146 168 1,700 -740 Descending Minneapolis Center
Thu 10:07:24 AM 41.5317 -93.6536 313° West 134 154 900 -774 Descending Minneapolis Center

Login

Don't have an account? Register now (free) for customized features, flight alerts, and more!